Time;durP1;ratioP1;P1;durP2;ratioP2;P2;SDS_P1;SDS_P2;PMS_P1;PMS_P2;Temp;Humidity;BMP_temperature;BMP_pressure;BME280_temperature;BME280_humidity;BME280_pressure;Samples;Min_cycle;Max_cycle;Signal;HPM_P1;HPM_P2
2022/06/16 00:02:17;;;;;;;11.52;4.90;;;14.10;99.90;;;;;;6275614;22;20012;-92
2022/06/16 00:05:00;;;;;;;11.48;5.20;;;14.10;99.90;;;;;;6276644;22;20498;-90
2022/06/16 00:07:35;;;;;;;9.75;5.22;;;13.80;99.90;;;;;;6248663;22;20344;-91
2022/06/16 00:13:52;;;;;;;10.32;5.15;;;13.10;99.90;;;;;;6234218;22;20019;-90
2022/06/16 00:16:27;;;;;;;11.23;5.18;;;13.00;99.90;;;;;;6248402;22;20373;-91
2022/06/16 00:18:52;;;;;;;10.13;5.40;;;12.90;99.90;;;;;;6249267;22;20015;-91
2022/06/16 00:21:21;;;;;;;10.55;5.07;;;13.90;99.90;;;;;;6248809;22;20026;-90
2022/06/16 00:24:38;;;;;;;12.55;5.03;;;13.40;99.90;;;;;;6249245;22;20432;-90
2022/06/16 00:31:22;;;;;;;12.77;5.45;;;13.40;99.90;;;;;;6245689;23;20387;-91
2022/06/16 00:34:05;;;;;;;11.82;5.20;;;13.50;99.90;;;;;;6099920;23;20033;-90
2022/06/16 00:36:49;;;;;;;13.63;5.20;;;12.70;99.90;;;;;;6143031;23;20048;-90
2022/06/16 00:39:33;;;;;;;12.43;5.95;;;12.90;99.90;;;;;;6143472;23;20029;-90
2022/06/16 00:42:58;;;;;;;12.13;5.93;;;12.60;99.90;;;;;;6189553;22;20042;-90
2022/06/16 00:46:04;;;;;;;11.77;5.13;;;12.60;99.90;;;;;;6217647;23;20028;-90
2022/06/16 00:48:56;;;;;;;11.45;5.20;;;12.60;99.90;;;;;;6249227;22;20019;-90
2022/06/16 00:51:45;;;;;;;14.18;5.53;;;12.60;99.90;;;;;;6187190;23;20099;-90
2022/06/16 00:54:35;;;;;;;10.80;5.30;;;12.60;99.90;;;;;;6183621;23;20433;-91
2022/06/16 00:57:33;;;;;;;10.27;5.32;;;11.80;99.90;;;;;;6181942;23;20458;-90
2022/06/16 01:00:12;;;;;;;12.85;5.35;;;12.60;99.90;;;;;;6182994;23;20017;-91
2022/06/16 01:06:24;;;;;;;11.13;5.13;;;12.60;99.90;;;;;;6183215;23;20346;-90
2022/06/16 01:16:18;;;;;;;10.60;5.03;;;12.50;99.90;;;;;;5996106;23;20022;-91
2022/06/16 01:19:31;;;;;;;11.55;5.60;;;12.40;99.90;;;;;;6092485;23;20474;-90
2022/06/16 01:22:19;;;;;;;12.45;5.70;;;12.40;99.90;;;;;;5983861;23;20048;-90
2022/06/16 01:49:30;;;;;;;12.23;5.28;;;12.80;99.90;;;;;;6186293;23;20052;-90
2022/06/16 01:55:55;;;;;;;11.57;5.32;;;12.30;99.90;;;;;;6184956;23;20104;-90
2022/06/16 01:58:44;;;;;;;11.43;5.25;;;12.20;99.90;;;;;;6186730;23;20017;-90
2022/06/16 02:02:05;;;;;;;12.13;5.38;;;12.20;99.90;;;;;;6184126;23;20017;-90
2022/06/16 02:05:13;;;;;;;12.00;5.18;;;12.30;99.90;;;;;;6183775;23;20066;-89
2022/06/16 02:08:19;;;;;;;11.77;5.60;;;12.20;99.90;;;;;;6069990;23;20054;-90
2022/06/16 02:11:25;;;;;;;11.20;5.30;;;12.10;99.90;;;;;;6070616;23;20101;-90
2022/06/16 02:22:17;;;;;;;13.07;4.97;;;12.00;99.90;;;;;;6185353;23;20156;-90
2022/06/16 02:25:36;;;;;;;13.35;5.13;;;12.00;99.90;;;;;;6158906;23;20021;-90
2022/06/16 02:28:28;;;;;;;12.43;5.53;;;12.00;99.90;;;;;;6158303;23;20013;-88
2022/06/16 02:31:27;;;;;;;13.45;5.53;;;11.20;99.90;;;;;;6186096;23;20089;-90
2022/06/16 02:34:45;;;;;;;12.70;6.38;;;11.90;99.90;;;;;;6186540;23;20021;-91
2022/06/16 02:51:25;;;;;;;12.27;5.80;;;11.80;99.90;;;;;;6191975;23;20048;-91
2022/06/16 02:54:55;;;;;;;14.02;5.97;;;11.80;99.90;;;;;;6229007;23;20017;-90
2022/06/16 02:57:56;;;;;;;14.38;6.25;;;11.90;99.90;;;;;;6096726;23;20022;-90
2022/06/16 03:01:01;;;;;;;17.83;6.80;;;11.60;99.90;;;;;;6095088;23;20142;-90
2022/06/16 03:03:37;;;;;;;14.25;6.05;;;11.80;99.90;;;;;;6094468;23;20061;-90
2022/06/16 03:06:28;;;;;;;16.50;6.05;;;12.90;99.90;;;;;;6094866;23;20026;-90
2022/06/16 03:08:59;;;;;;;16.80;6.82;;;11.60;99.90;;;;;;6093636;23;20019;-90
2022/06/16 03:11:44;;;;;;;14.23;6.10;;;12.80;99.90;;;;;;6093242;23;20388;-90
2022/06/16 03:14:13;;;;;;;13.35;5.97;;;12.80;99.90;;;;;;5985021;23;20041;-91
2022/06/16 03:16:39;;;;;;;12.85;5.80;;;12.70;99.90;;;;;;6080739;23;20475;-90
2022/06/16 03:19:14;;;;;;;14.23;6.25;;;12.60;99.90;;;;;;6069318;23;20057;-91
2022/06/16 03:21:45;;;;;;;13.05;5.80;;;12.90;99.90;;;;;;6070471;23;20105;-90
2022/06/16 03:24:12;;;;;;;12.70;6.20;;;11.90;99.90;;;;;;6143324;23;20017;-90
2022/06/16 03:26:56;;;;;;;14.23;6.38;;;12.50;99.90;;;;;;6216182;23;20008;-89
2022/06/16 03:29:22;;;;;;;12.43;6.20;;;12.90;99.90;;;;;;6188321;23;20017;-90
2022/06/16 03:31:59;;;;;;;13.55;6.50;;;12.10;99.90;;;;;;6214464;23;20004;-90
2022/06/16 03:34:43;;;;;;;12.77;6.20;;;13.00;99.90;;;;;;6187285;23;20021;-90
2022/06/16 03:37:15;;;;;;;13.02;6.07;;;12.00;99.90;;;;;;6189006;23;20027;-90
2022/06/16 03:39:41;;;;;;;14.35;6.47;;;12.10;99.90;;;;;;6184352;23;20020;-90
2022/06/16 03:42:06;;;;;;;13.50;6.72;;;12.80;99.90;;;;;;6218158;23;20028;-91
2022/06/16 03:44:38;;;;;;;13.02;6.32;;;12.20;99.90;;;;;;6188517;23;20012;-91
2022/06/16 03:47:16;;;;;;;13.25;6.40;;;13.10;99.90;;;;;;6187618;23;20028;-91
2022/06/16 03:49:48;;;;;;;15.93;6.25;;;13.10;99.90;;;;;;6187925;23;20096;-91
2022/06/16 03:52:29;;;;;;;15.18;6.00;;;12.00;99.90;;;;;;6187854;23;20017;-91
2022/06/16 03:54:58;;;;;;;14.68;6.10;;;12.70;99.90;;;;;;6214625;23;20472;-91
2022/06/16 03:57:29;;;;;;;13.25;6.32;;;12.60;99.90;;;;;;6189217;23;20020;-91
2022/06/16 04:00:15;;;;;;;13.95;6.00;;;12.00;99.90;;;;;;6187485;23;20034;-91
2022/06/16 04:03:59;;;;;;;14.70;5.65;;;12.00;99.90;;;;;;6188253;23;20420;-91
2022/06/16 04:05:45;;;;;;;12.93;6.00;;;12.00;99.90;;;;;;6186226;23;20524;-91
2022/06/16 04:08:45;;;;;;;13.73;5.90;;;13.20;99.90;;;;;;6187727;23;20036;-91
2022/06/16 04:14:22;;;;;;;12.65;5.50;;;12.70;99.90;;;;;;6214816;23;20025;-91
2022/06/16 04:16:59;;;;;;;14.55;6.25;;;11.90;99.90;;;;;;6188298;23;20024;-90
2022/06/16 04:19:25;;;;;;;12.60;5.70;;;13.10;99.90;;;;;;6188543;23;20455;-91
2022/06/16 04:21:53;;;;;;;15.93;5.68;;;12.00;99.90;;;;;;6214152;23;20087;-91
2022/06/16 04:24:55;;;;;;;12.65;5.90;;;12.50;99.90;;;;;;6124719;23;20404;-91
2022/06/16 04:27:57;;;;;;;;;;;13.10;99.90;;;;;;6215181;23;20015;-91
2022/06/16 04:30:23;;;;;;;16.00;5.90;;;12.00;99.90;;;;;;6188561;23;19930;-91
2022/06/16 04:33:04;;;;;;;14.90;6.25;;;13.20;99.90;;;;;;6215250;23;20056;-91
2022/06/16 04:35:41;;;;;;;13.35;6.00;;;12.00;99.90;;;;;;6214409;23;20012;-90
2022/06/16 04:38:26;;;;;;;15.20;5.97;;;13.10;99.90;;;;;;6188547;23;20457;-91
2022/06/16 04:41:52;;;;;;;12.75;5.53;;;12.50;99.90;;;;;;6199562;23;20055;-91
2022/06/16 04:48:28;;;;;;;12.88;5.57;;;12.20;99.90;;;;;;6069287;23;20023;-91
2022/06/16 04:50:54;;;;;;;11.32;5.28;;;12.50;99.90;;;;;;6137470;23;20033;-91
2022/06/16 04:57:24;;;;;;;12.43;5.00;;;12.90;99.90;;;;;;6183881;23;20035;-91
2022/06/16 05:43:51;;;;;;;9.55;3.88;;;14.70;99.90;;;;;;6276057;22;20061;-91
2022/06/16 07:05:45;;;;;;;14.90;2.55;;;16.30;99.90;;;;;;6116395;23;20215;-92
2022/06/16 08:04:28;;;;;;;4.93;1.70;;;18.60;99.90;;;;;;6147569;22;20451;31
2022/06/16 10:39:42;;;;;;;7.20;2.80;;;22.80;97.10;;;;;;6188330;23;20119;-88
2022/06/16 10:42:56;;;;;;;8.77;2.80;;;23.40;96.90;;;;;;6170742;23;20020;-88
2022/06/16 10:45:37;;;;;;;10.23;3.25;;;23.70;94.90;;;;;;6186510;23;20021;-91
2022/06/16 10:48:43;;;;;;;8.25;2.83;;;23.30;94.60;;;;;;6183039;23;20045;-90
2022/06/16 11:05:32;;;;;;;8.80;3.40;;;23.50;94.20;;;;;;6303624;22;20019;-81
2022/06/16 16:27:00;;;;;;;7.65;3.17;;;26.40;82.20;;;;;;6275312;22;19913;-88
2022/06/16 16:29:28;;;;;;;8.75;3.30;;;26.30;82.10;;;;;;6247902;22;20024;-89
2022/06/16 16:32:08;;;;;;;10.30;3.50;;;26.30;83.30;;;;;;6247030;22;20012;-88
2022/06/16 16:34:42;;;;;;;7.88;3.45;;;26.50;82.40;;;;;;6249159;22;20016;-89
2022/06/16 16:37:08;;;;;;;7.80;3.20;;;26.60;83.00;;;;;;6248751;22;20023;-89
2022/06/16 16:39:36;;;;;;;9.65;3.33;;;26.70;83.40;;;;;;6273954;22;20137;-88
2022/06/16 16:45:52;;;;;;;8.70;3.35;;;26.50;82.40;;;;;;6277367;22;20022;-88
2022/06/16 16:49:10;;;;;;;8.70;3.50;;;26.10;83.00;;;;;;6276161;22;20018;-88
2022/06/16 16:55:21;;;;;;;9.98;3.20;;;25.10;83.60;;;;;;6247477;22;20020;-91
2022/06/16 16:57:53;;;;;;;10.35;3.47;;;25.20;84.40;;;;;;6275075;22;20081;-89
2022/06/16 17:00:22;;;;;;;9.02;3.53;;;24.50;84.90;;;;;;6247910;22;20019;-90
2022/06/16 17:02:48;;;;;;;9.30;3.40;;;24.20;84.90;;;;;;6248343;22;20020;-89
2022/06/16 17:05:22;;;;;;;8.80;3.38;;;24.00;85.00;;;;;;6274832;22;20015;-89
2022/06/16 17:08:04;;;;;;;10.05;3.30;;;23.80;85.50;;;;;;6247367;22;20030;-90
2022/06/16 17:11:50;;;;;;;9.18;3.35;;;23.70;86.20;;;;;;6275916;22;20070;-89
2022/06/16 17:13:44;;;;;;;8.13;3.30;;;23.50;86.60;;;;;;6246869;22;20023;-90
2022/06/16 17:16:36;;;;;;;7.75;3.35;;;23.30;86.80;;;;;;6248707;22;20023;-95
2022/06/16 17:19:32;;;;;;;7.93;3.30;;;23.20;87.90;;;;;;6137789;23;20026;-95
2022/06/16 17:21:58;;;;;;;9.52;3.50;;;23.10;87.90;;;;;;6123146;23;20113;-92
2022/06/16 17:25:02;;;;;;;9.48;3.53;;;23.00;87.50;;;;;;6123245;23;20024;-92
2022/06/16 17:27:46;;;;;;;9.15;3.40;;;22.90;87.80;;;;;;6063846;23;20022;-90
2022/06/16 17:30:23;;;;;;;9.43;3.50;;;22.90;88.00;;;;;;6075370;23;20375;-89
2022/06/16 17:33:04;;;;;;;8.77;3.38;;;22.70;88.60;;;;;;6035649;23;20025;-90
2022/06/16 17:35:43;;;;;;;9.88;3.70;;;23.40;89.40;;;;;;6035735;23;20019;-89
2022/06/16 17:38:21;;;;;;;8.40;3.33;;;22.70;89.10;;;;;;6042716;23;20027;-90
2022/06/16 17:40:50;;;;;;;13.50;3.92;;;22.60;89.00;;;;;;6094499;23;20021;-89
2022/06/16 17:43:31;;;;;;;9.18;3.88;;;22.70;89.10;;;;;;6120036;23;20025;-91
2022/06/16 17:46:10;;;;;;;8.80;3.88;;;22.70;90.30;;;;;;6095098;23;20324;-89
2022/06/16 17:48:38;;;;;;;9.48;4.00;;;22.80;90.20;;;;;;6131100;23;20020;-88
2022/06/16 17:51:22;;;;;;;8.40;3.42;;;22.80;90.10;;;;;;6119772;22;20018;-90
2022/06/16 17:59:56;;;;;;;8.68;3.67;;;23.10;90.00;;;;;;6121642;23;20089;-90
2022/06/16 18:02:37;;;;;;;10.23;3.50;;;23.60;90.20;;;;;;6097081;23;20018;-90
2022/06/16 18:05:11;;;;;;;8.98;3.17;;;24.20;89.70;;;;;;6093649;23;20075;-90
2022/06/16 18:07:51;;;;;;;9.18;3.50;;;24.80;88.10;;;;;;6121012;23;20063;-92
2022/06/16 18:10:46;;;;;;;9.38;3.35;;;25.50;87.60;;;;;;6120142;23;20022;-90
2022/06/16 18:13:24;;;;;;;9.43;4.05;;;25.50;87.40;;;;;;6094766;23;20024;-91
2022/06/16 18:15:51;;;;;;;9.23;3.47;;;25.30;86.30;;;;;;6119820;23;20370;-90
2022/06/16 18:18:29;;;;;;;9.45;3.35;;;25.20;87.20;;;;;;6187196;22;20020;-91
2022/06/16 18:24:37;;;;;;;8.20;3.42;;;24.80;87.60;;;;;;6274326;22;20020;-89
2022/06/16 18:27:33;;;;;;;8.80;3.40;;;24.70;88.20;;;;;;6251617;22;20098;-91
2022/06/16 18:30:01;;;;;;;10.00;3.83;;;24.90;87.80;;;;;;6249082;22;20440;-91
2022/06/16 18:32:36;;;;;;;8.18;3.55;;;25.20;88.00;;;;;;6247752;22;20012;-89
2022/06/16 18:36:03;;;;;;;11.27;3.60;;;25.60;87.40;;;;;;6249266;22;20020;-89
2022/06/16 18:42:08;;;;;;;8.95;3.70;;;26.10;87.60;;;;;;6264426;22;20027;-91
2022/06/16 18:54:23;;;;;;;10.52;3.75;;;26.10;87.70;;;;;;6245828;23;20023;-91
2022/06/16 18:57:01;;;;;;;9.82;3.53;;;25.90;87.60;;;;;;6219188;23;20085;-90
2022/06/16 18:59:56;;;;;;;10.27;3.60;;;25.70;88.30;;;;;;6241406;22;20027;-91
2022/06/16 19:02:51;;;;;;;8.85;3.50;;;25.10;88.70;;;;;;6124225;23;20018;-91
2022/06/16 19:05:35;;;;;;;10.45;3.50;;;24.40;89.70;;;;;;6099655;23;20021;-91
2022/06/16 19:18:46;;;;;;;;;;;;;;;;;;;;;
2022/06/16 19:33:46;;;;;;;;;;;;;;;;;;;;;
2022/06/16 20:10:19;;;;;;;8.90;3.80;;;19.00;99.90;;;;;;6133891;23;20044;-89
2022/06/16 20:24:12;;;;;;;10.07;3.70;;;18.10;99.90;;;;;;6277300;22;20070;-89
2022/06/16 20:27:43;;;;;;;;;;;;;;;;;;;;;
2022/06/16 20:34:34;;;;;;;9.65;4.43;;;17.90;99.90;;;;;;6185099;23;20084;-87
2022/06/16 20:37:44;;;;;;;9.80;4.35;;;17.80;99.90;;;;;;6173085;23;20028;-85
2022/06/16 20:40:23;;;;;;;11.07;4.40;;;17.50;99.90;;;;;;6176985;23;20520;-86
2022/06/16 20:50:39;;;;;;;12.00;3.90;;;17.40;99.90;;;;;;6122986;23;20021;-86
2022/06/16 21:03:28;;;;;;;10.27;3.83;;;17.10;99.90;;;;;;6098380;23;20053;-86
2022/06/16 21:06:46;;;;;;;12.02;4.38;;;17.40;99.90;;;;;;6151830;23;20016;-87
2022/06/16 21:10:14;;;;;;;10.65;3.88;;;16.80;99.90;;;;;;6154172;23;20068;-87
2022/06/16 21:16:05;;;;;;;10.93;4.30;;;17.80;99.90;;;;;;6088605;23;20018;-87
2022/06/16 21:19:08;;;;;;;10.18;3.83;;;17.70;99.90;;;;;;5980586;24;20016;-87
2022/06/16 21:21:37;;;;;;;11.65;4.28;;;16.80;99.90;;;;;;5955693;24;20062;-87
2022/06/16 21:24:37;;;;;;;9.02;4.20;;;16.70;99.90;;;;;;5978966;24;20032;-87
2022/06/16 21:27:32;;;;;;;;;;;;;;;;;;;;;
2022/06/16 21:30:43;;;;;;;10.73;4.57;;;16.50;99.90;;;;;;5959741;24;20461;-86
2022/06/16 21:36:50;;;;;;;10.75;4.90;;;17.30;99.90;;;;;;5979684;24;20024;-86
2022/06/16 21:51:08;;;;;;;9.93;4.43;;;16.10;99.90;;;;;;6243961;23;20110;-88
2022/06/16 21:53:49;;;;;;;9.20;4.38;;;16.70;99.90;;;;;;6243966;23;20023;-88
2022/06/16 21:56:22;;;;;;;11.85;4.82;;;15.90;99.90;;;;;;6192012;23;20016;-88
2022/06/16 21:59:02;;;;;;;8.95;4.60;;;16.70;99.90;;;;;;6219496;23;20031;-88
2022/06/16 22:01:43;;;;;;;9.38;4.50;;;16.30;99.90;;;;;;6247521;23;20012;-89
2022/06/16 22:04:25;;;;;;;10.23;4.28;;;15.70;99.90;;;;;;6217447;23;20020;-88
2022/06/16 22:06:51;;;;;;;9.85;4.70;;;16.60;99.90;;;;;;6219196;23;20016;-88
2022/06/16 22:09:22;;;;;;;9.02;4.40;;;16.30;99.90;;;;;;6243368;23;20012;-87
2022/06/16 22:12:22;;;;;;;10.82;4.60;;;16.40;99.90;;;;;;6246141;23;20016;-88
2022/06/16 22:17:48;;;;;;;10.77;4.78;;;15.60;99.90;;;;;;6218712;23;20024;-88
2022/06/16 22:20:28;;;;;;;9.80;4.90;;;15.40;99.90;;;;;;6219288;23;20024;-88
2022/06/16 22:22:55;;;;;;;9.07;4.40;;;15.40;99.90;;;;;;6219728;23;20017;-88
2022/06/16 22:25:21;;;;;;;9.82;4.68;;;15.30;99.90;;;;;;6219500;23;20042;-88
2022/06/16 22:27:54;;;;;;;11.63;4.85;;;15.20;99.90;;;;;;6219585;23;20064;-89
2022/06/16 22:30:35;;;;;;;9.45;4.72;;;15.10;99.90;;;;;;6256028;22;20478;-89
2022/06/16 22:33:23;;;;;;;11.73;5.03;;;15.90;99.90;;;;;;6248547;22;20023;-88
2022/06/16 22:35:57;;;;;;;11.18;4.80;;;15.00;99.90;;;;;;6276737;22;20022;-88
2022/06/16 22:38:41;;;;;;;14.70;5.90;;;14.70;99.90;;;;;;6248612;22;20019;-88
2022/06/16 22:41:25;;;;;;;;;;;15.50;99.90;;;;;;6277879;22;20034;-89
2022/06/16 22:44:37;;;;;;;10.48;4.85;;;14.90;99.90;;;;;;6249111;22;19999;-89
2022/06/16 22:47:04;;;;;;;10.15;4.80;;;14.80;99.90;;;;;;6228171;22;20023;-89
2022/06/16 22:49:50;;;;;;;11.98;4.70;;;14.70;99.90;;;;;;6276825;22;20008;-88
2022/06/16 22:52:35;;;;;;;12.40;5.15;;;14.60;99.90;;;;;;6250198;22;20035;-88
2022/06/16 22:58:40;;;;;;;10.82;5.35;;;15.50;99.90;;;;;;6124580;23;20032;-88
2022/06/16 23:01:38;;;;;;;11.07;5.30;;;15.30;99.90;;;;;;6154822;22;20463;-89
2022/06/16 23:04:18;;;;;;;;;;;;;;;;;;;;;
2022/06/16 23:07:36;;;;;;;10.75;5.05;;;15.20;99.90;;;;;;6152409;23;20057;-89
2022/06/16 23:10:05;;;;;;;10.35;4.88;;;14.30;99.90;;;;;;6153326;23;20480;-88
2022/06/16 23:12:46;;;;;;;10.55;5.43;;;14.30;99.90;;;;;;6128720;23;20112;-89
2022/06/16 23:15:20;;;;;;;11.77;5.47;;;14.20;99.90;;;;;;6152064;23;20044;-89
2022/06/16 23:21:37;;;;;;;10.85;5.40;;;14.90;99.90;;;;;;6197424;22;20467;-89
2022/06/16 23:24:26;;;;;;;;;;;;;;;;;;;;;
2022/06/16 23:27:30;;;;;;;11.20;5.65;;;15.10;99.90;;;;;;6248169;22;20280;-88
2022/06/16 23:30:17;;;;;;;13.07;5.47;;;14.00;99.90;;;;;;6121801;23;20022;-87
2022/06/16 23:32:47;;;;;;;11.10;5.40;;;14.00;99.90;;;;;;6225100;22;20333;-89
2022/06/16 23:35:18;;;;;;;9.85;5.18;;;15.00;99.90;;;;;;6247452;22;20023;-89
2022/06/16 23:37:57;;;;;;;11.90;5.63;;;14.50;99.90;;;;;;6276154;22;20439;-89
2022/06/16 23:40:39;;;;;;;10.48;5.20;;;14.60;99.90;;;;;;6249033;22;20019;-89
2022/06/16 23:43:43;;;;;;;10.10;5.30;;;14.10;99.90;;;;;;6276196;22;20035;-89
2022/06/16 23:46:26;;;;;;;10.93;5.72;;;13.80;99.90;;;;;;6277561;22;20042;-89
2022/06/16 23:49:20;;;;;;;;;;;;;;;;;;;;;
2022/06/16 23:52:32;;;;;;;10.73;5.90;;;14.60;99.90;;;;;;6269356;22;20015;-89
2022/06/16 23:54:57;;;;;;;11.15;6.00;;;13.70;99.90;;;;;;6249160;22;20019;-89
2022/06/16 23:57:38;;;;;;;12.27;5.90;;;13.60;99.90;;;;;;6276223;22;20312;-90
